Time;durP1;ratioP1;P1;durP2;ratioP2;P2;SDS_P1;SDS_P2;PMS_P1;PMS_P2;Temp;Humidity;BMP_temperature;BMP_pressure;BME280_temperature;BME280_humidity;BME280_pressure;Samples;Min_cycle;Max_cycle;Signal;HPM_P1;HPM_P2
2021/11/13 13:30:32;;;;;;;0.00;0.00;;;;;;;;;;7395451;19;20715;-39
2021/11/13 13:33:50;;;;;;;;;;;;;;;;;;7400649;19;19979;-41
2021/11/13 13:36:16;;;;;;;;;;;;;;;;;;7398988;19;19923;-40
2021/11/13 13:38:42;;;;;;;;;;;;;;;;;;7401430;19;19921;-39
2021/11/13 13:41:08;;;;;;;;;;;;;;;;;;7402197;19;19930;-38
2021/11/13 13:43:35;;;;;;;;;;;;;;;;;;7396682;19;19925;-40
2021/11/13 13:46:01;;;;;;;;;;;;;;;;;;7405566;19;19943;-39
2021/11/13 13:48:27;;;;;;;;;;;;;;;;;;7404507;19;19974;-42
2021/11/13 13:50:53;;;;;;;;;;;;;;;;;;7398522;19;19922;-40
2021/11/13 14:23:36;;;;;;;;;;;;;;;;;;6933023;19;113544;-49
2021/11/13 14:27:39;;;;;;;0.00;0.00;;;;;;;;;;7332293;19;20654;-46
2021/11/13 14:31:49;;;;;;;0.10;0.10;;;;;;;23.71;44.67;101357.06;6857350;19;24450;-45
2021/11/13 14:34:17;;;;;;;0.08;0.08;;;;;;;24.11;43.27;101349.88;6412272;19;20015;-48
2021/11/13 14:36:51;;;;;;;0.00;0.00;;;;;;;24.59;42.65;101342.94;6422535;19;20060;-50
2021/11/13 14:39:22;;;;;;;0.10;0.10;;;;;;;24.93;41.43;101329.81;6437960;19;20024;-52
2021/11/13 14:42:06;;;;;;;0.05;0.05;;;;;;;25.26;40.94;101336.34;7263064;19;20475;-53
2021/11/13 14:44:36;;;;;;;0.10;0.10;;;;;;;25.39;40.47;101326.44;7354697;19;20478;-54
2021/11/13 14:47:07;;;;;;;0.10;0.10;;;;;;;25.56;40.21;101338.53;7334634;19;20019;-51
2021/11/13 14:49:35;;;;;;;0.00;0.00;;;;;;;25.63;39.97;101337.94;7357007;19;20757;-50
2021/11/13 14:52:09;;;;;;;0.00;0.00;;;;;;;25.75;39.54;101335.34;6445331;19;20016;-50
2021/11/13 14:54:35;;;;;;;0.00;0.00;;;;;;;25.75;39.34;101335.34;6444063;19;20003;-56
2021/11/13 14:57:10;;;;;;;0.00;0.00;;;;;;;25.87;39.24;101343.28;7242885;19;20026;-52
2021/11/13 14:59:39;;;;;;;0.00;0.00;;;;;;;25.74;39.59;101321.06;7384538;19;20534;-50
2021/11/13 15:02:05;;;;;;;0.00;0.00;;;;;;;25.80;39.17;101342.06;7354097;19;20017;-53
2021/11/13 15:04:33;;;;;;;0.00;0.00;;;;;;;25.89;39.10;101345.84;7358179;19;20010;-53
2021/11/13 15:07:07;;;;;;;0.00;0.00;;;;;;;25.89;39.30;101340.50;7334495;19;20101;-51
2021/11/13 15:09:54;;;;;;;0.10;0.10;;;;;;;25.96;38.75;101340.88;7352741;19;20027;-50
2021/11/13 15:12:22;;;;;;;0.00;0.00;;;;;;;25.90;39.20;101342.19;7333913;19;20010;-51
2021/11/13 15:14:48;;;;;;;0.00;0.00;;;;;;;25.88;39.03;101341.47;7331616;19;20058;-54
2021/11/13 15:17:21;;;;;;;0.00;0.00;;;;;;;25.91;39.44;101341.25;7356722;19;20122;-52
2021/11/13 15:19:55;;;;;;;0.00;0.00;;;;;;;25.95;38.71;101344.50;7349733;19;20014;-52
2021/11/13 15:22:37;;;;;;;0.10;0.10;;;;;;;25.92;39.10;101340.25;7355787;19;20027;-52
2021/11/13 15:25:22;;;;;;;0.00;0.00;;;;;;;25.96;39.04;101336.38;7331641;19;20759;-52
2021/11/13 15:27:57;;;;;;;0.00;0.00;;;;;;;25.93;39.12;101341.13;7297273;19;20097;-51
2021/11/13 15:30:24;;;;;;;0.00;0.00;;;;;;;25.86;39.38;101341.59;7353366;19;20011;-53
2021/11/13 15:32:51;;;;;;;0.00;0.00;;;;;;;25.88;39.20;101342.31;7331834;19;20024;-53
2021/11/13 15:35:19;;;;;;;0.10;0.10;;;;;;;25.90;39.30;101336.84;7355097;19;20057;-53
2021/11/13 15:37:47;;;;;;;0.00;0.00;;;;;;;25.88;39.31;101347.66;7333266;19;20026;-52
2021/11/13 15:40:17;;;;;;;0.10;0.10;;;;;;;25.91;38.84;101346.59;7390066;19;20031;-53
2021/11/13 15:42:46;;;;;;;0.10;0.10;;;;;;;25.85;38.96;101350.59;7336871;19;20026;-54
2021/11/13 15:45:20;;;;;;;0.00;0.00;;;;;;;25.88;39.20;101352.16;7330733;19;20018;-50
2021/11/13 15:48:07;;;;;;;0.05;0.05;;;;;;;25.90;39.03;101347.53;7037130;19;20082;-52
2021/11/13 15:50:35;;;;;;;0.00;0.00;;;;;;;25.85;39.07;101347.03;6410637;19;20383;-53
2021/11/13 15:53:05;;;;;;;0.10;0.10;;;;;;;25.80;38.89;101351.88;6855516;19;20018;-55
2021/11/13 15:55:31;;;;;;;0.00;0.00;;;;;;;25.82;39.23;101349.97;7326975;19;20495;-54
2021/11/13 15:57:57;;;;;;;0.00;0.00;;;;;;;25.81;39.00;101348.28;7223130;19;20010;-51
2021/11/13 16:00:25;;;;;;;0.00;0.00;;;;;;;25.84;39.45;101350.69;7220052;19;20080;-50
2021/11/13 16:02:52;;;;;;;0.00;0.00;;;;;;;25.80;39.25;101350.09;7372299;19;20027;-53
2021/11/13 16:05:20;;;;;;;0.03;0.03;;;;;;;25.83;38.98;101357.88;7370919;19;20021;-50
2021/11/13 16:07:45;;;;;;;0.05;0.05;;;;;;;25.79;39.43;101355.53;7367916;19;20500;-54
2021/11/13 16:10:13;;;;;;;0.00;0.00;;;;;;;25.79;39.21;101360.91;7369663;19;20006;-55
2021/11/13 16:12:40;;;;;;;0.03;0.03;;;;;;;25.75;39.23;101359.41;7371401;19;20018;-54
2021/11/13 16:15:06;;;;;;;0.00;0.00;;;;;;;25.77;39.26;101362.84;7367779;19;20077;-52
2021/11/13 16:17:31;;;;;;;0.00;0.00;;;;;;;25.76;39.07;101374.53;7368334;19;20027;-55
2021/11/13 16:19:56;;;;;;;0.00;0.00;;;;;;;25.74;39.31;101379.94;7364333;19;20124;-53
2021/11/13 16:22:22;;;;;;;0.10;0.10;;;;;;;25.74;39.52;101373.72;7362905;19;20495;-52
2021/11/13 16:24:48;;;;;;;0.00;0.00;;;;;;;25.73;39.14;101377.38;7365629;19;20010;-52
2021/11/13 16:27:13;;;;;;;0.00;0.00;;;;;;;25.72;39.13;101378.34;7366123;19;20750;-55
2021/11/13 16:33:29;;;;;;;0.00;0.00;;;;;;;25.30;36.96;101391.31;6942219;19;10001070;-57
2021/11/13 16:35:55;;;;;;;0.00;0.00;;;;;;;24.61;37.67;101382.03;1629096;19;10001965;-57
2021/11/13 16:38:23;;;;;;;0.00;0.00;;;;;;;24.00;38.55;101409.31;7398601;19;20021;-57
2021/11/13 16:40:54;;;;;;;0.05;0.05;;;;;;;23.24;39.50;101409.03;7402342;19;20349;-57
2021/11/13 16:43:22;;;;;;;0.00;0.00;;;;;;;22.46;40.87;101421.91;7400396;19;20011;-56
2021/11/13 16:45:52;;;;;;;0.00;0.00;;;;;;;21.77;42.26;101423.31;7403859;19;20364;-55
2021/11/13 16:48:19;;;;;;;0.00;0.00;;;;;;;21.06;43.87;101421.09;7400424;19;20019;-57
2021/11/13 16:50:46;;;;;;;0.00;0.00;;;;;;;20.43;44.76;101432.41;7400444;19;20030;-56
2021/11/13 16:53:16;;;;;;;0.00;0.00;;;;;;;19.87;45.92;101433.50;7401009;19;20086;-57
2021/11/13 16:55:47;;;;;;;0.00;0.00;;;;;;;19.36;47.77;101427.13;7402090;19;20010;-57
2021/11/13 16:58:13;;;;;;;0.00;0.00;;;;;;;18.90;48.48;101428.41;7400712;19;20017;-56
2021/11/13 17:00:40;;;;;;;0.00;0.00;;;;;;;18.53;49.89;101426.53;7398158;19;20007;-56
2021/11/13 17:03:06;;;;;;;0.00;0.00;;;;;;;18.17;49.55;101424.56;7401227;19;20010;-56
2021/11/13 17:05:31;;;;;;;0.00;0.00;;;;;;;17.88;50.91;101424.00;7398383;19;20065;-57
2021/11/13 17:07:57;;;;;;;0.00;0.00;;;;;;;17.62;52.68;101418.91;7400983;19;20027;-57
2021/11/13 17:10:24;;;;;;;0.00;0.00;;;;;;;17.31;52.89;101408.69;7400641;19;20013;-57
2021/11/13 17:12:49;;;;;;;0.00;0.00;;;;;;;17.18;52.86;101433.84;7399178;19;20018;-56
2021/11/13 17:15:15;;;;;;;0.00;0.00;;;;;;;16.99;53.66;101431.91;7401112;19;20015;-56
2021/11/13 17:17:42;;;;;;;0.00;0.00;;;;;;;16.83;54.50;101434.28;7397124;19;20049;-57
2021/11/13 17:20:08;;;;;;;0.00;0.00;;;;;;;16.67;54.97;101438.34;7401190;19;20018;-57
2021/11/13 17:22:42;;;;;;;0.00;0.00;;;;;;;16.56;53.01;101445.78;7402310;19;20349;-55
2021/11/13 17:25:09;;;;;;;0.00;0.00;;;;;;;16.27;55.92;101423.97;7400368;19;20006;-57
2021/11/13 17:27:36;;;;;;;0.00;0.00;;;;;;;16.27;56.06;101445.03;7401011;19;20010;-55
2021/11/13 17:30:08;;;;;;;0.00;0.00;;;;;;;16.18;56.36;101450.63;7401308;19;20010;-56
2021/11/13 17:32:35;;;;;;;0.00;0.00;;;;;;;16.04;57.28;101447.59;7400293;19;20041;-57
2021/11/13 17:35:00;;;;;;;0.00;0.00;;;;;;;15.99;57.48;101457.41;7394875;19;20024;-57
2021/11/13 17:37:26;;;;;;;0.00;0.00;;;;;;;15.89;57.85;101456.00;7399653;19;20476;-54
2021/11/13 17:39:52;;;;;;;0.00;0.00;;;;;;;15.85;57.30;101463.13;7401420;19;20339;-57
2021/11/13 17:42:18;;;;;;;0.00;0.00;;;;;;;15.79;57.13;101464.19;7399146;19;20006;-56
2021/11/13 17:44:44;;;;;;;0.00;0.00;;;;;;;15.73;56.70;101459.13;7372351;19;20020;-56
2021/11/13 17:47:10;;;;;;;0.00;0.00;;;;;;;15.68;57.29;101461.03;7373348;19;22594;-56
2021/11/13 17:49:35;;;;;;;0.00;0.00;;;;;;;15.62;57.98;101466.47;7368806;19;20016;-56
2021/11/13 17:52:01;;;;;;;0.10;0.10;;;;;;;15.57;58.72;101471.03;7348791;19;20010;-57
2021/11/13 17:54:27;;;;;;;0.00;0.00;;;;;;;15.53;58.75;101472.88;7371613;19;20003;-56
2021/11/13 17:56:52;;;;;;;0.00;0.00;;;;;;;15.44;58.30;101467.03;7371915;19;20010;-56
2021/11/13 17:59:18;;;;;;;0.00;0.00;;;;;;;15.34;57.72;101452.44;7369603;19;20973;-56
2021/11/13 18:01:44;;;;;;;0.00;0.00;;;;;;;15.39;58.49;101475.06;7371482;19;20402;-55
2021/11/13 18:04:11;;;;;;;0.00;0.00;;;;;;;15.40;59.02;101476.78;7370089;19;20007;-57
2021/11/13 18:06:38;;;;;;;0.00;0.00;;;;;;;15.35;58.76;101473.44;7370223;19;20021;-55
2021/11/13 18:09:05;;;;;;;0.00;0.00;;;;;;;15.28;59.12;101469.28;7370389;19;20029;-55
2021/11/13 18:11:36;;;;;;;0.00;0.00;;;;;;;15.27;59.42;101481.56;7369043;19;20030;-57
2021/11/13 18:14:03;;;;;;;0.00;0.00;;;;;;;15.17;59.80;101479.25;7368818;19;20037;-56
2021/11/13 18:16:28;;;;;;;0.00;0.00;;;;;;;15.20;59.52;101495.78;7367202;19;20023;-56
2021/11/13 18:18:54;;;;;;;0.00;0.00;;;;;;;15.15;59.70;101497.69;7369901;19;20013;-57
2021/11/13 18:21:19;;;;;;;0.00;0.00;;;;;;;14.95;59.88;101473.72;7369294;19;20029;-55
2021/11/13 18:23:45;;;;;;;0.08;0.08;;;;;;;15.07;59.85;101498.84;7367984;19;20021;-54
2021/11/13 18:26:10;;;;;;;0.10;0.10;;;;;;;15.05;60.16;101501.50;7367669;19;20030;-55
2021/11/13 18:28:37;;;;;;;0.00;0.00;;;;;;;15.01;60.04;101500.75;7370115;19;20006;-55
2021/11/13 18:31:03;;;;;;;0.00;0.00;;;;;;;14.99;60.66;101501.69;7362477;19;20022;-55
2021/11/13 18:33:28;;;;;;;0.00;0.00;;;;;;;14.98;60.71;101510.47;7364810;19;20354;-56
2021/11/13 18:35:58;;;;;;;0.00;0.00;;;;;;;14.97;60.52;101516.66;7366555;19;20412;-56
2021/11/13 18:38:25;;;;;;;0.00;0.00;;;;;;;14.97;61.08;101511.38;7365594;19;20010;-57
2021/11/13 18:40:54;;;;;;;0.00;0.00;;;;;;;14.95;61.01;101505.28;7365409;19;20106;-56
2021/11/13 18:43:21;;;;;;;0.00;0.00;;;;;;;14.96;61.40;101512.31;7357352;19;20041;-56
2021/11/13 18:45:48;;;;;;;0.00;0.00;;;;;;;14.97;61.90;101500.88;7365562;19;20014;-55
2021/11/13 18:48:19;;;;;;;0.03;0.03;;;;;;;14.99;60.89;101502.53;7369395;19;20027;-56
2021/11/13 18:50:46;;;;;;;0.10;0.10;;;;;;;14.98;61.28;101505.22;7364432;19;20006;-56
2021/11/13 18:53:12;;;;;;;0.00;0.00;;;;;;;14.66;61.46;101457.03;7358767;19;20014;-55
2021/11/13 18:55:38;;;;;;;0.00;0.00;;;;;;;14.98;61.32;101505.22;7358761;19;20018;-55
2021/11/13 18:58:04;;;;;;;0.00;0.00;;;;;;;14.97;61.48;101504.34;7360410;19;20038;-56
2021/11/13 19:00:29;;;;;;;0.00;0.00;;;;;;;14.98;61.14;101510.47;7364843;19;20015;-57
2021/11/13 19:02:57;;;;;;;0.00;0.00;;;;;;;14.98;61.36;101507.84;7361130;19;20007;-57
2021/11/13 19:05:22;;;;;;;0.00;0.00;;;;;;;14.96;61.63;101502.66;7367292;19;20010;-56
2021/11/13 19:07:48;;;;;;;0.00;0.00;;;;;;;14.97;61.55;101508.75;7367793;19;20029;-56
2021/11/13 19:10:14;;;;;;;0.00;0.00;;;;;;;14.97;62.10;101503.50;7368201;19;20010;-57
2021/11/13 19:12:41;;;;;;;0.00;0.00;;;;;;;14.93;62.07;101497.44;7357146;19;20014;-57
2021/11/13 19:15:09;;;;;;;0.00;0.00;;;;;;;14.97;62.09;101500.88;7358911;19;20018;-55
2021/11/13 19:17:35;;;;;;;0.00;0.00;;;;;;;14.89;61.99;101494.94;7362851;19;20545;-57
2021/11/13 19:20:01;;;;;;;0.00;0.00;;;;;;;14.94;62.22;101509.69;7362832;19;20077;-57
2021/11/13 19:22:27;;;;;;;0.00;0.00;;;;;;;14.95;62.17;101498.28;7355474;19;20015;-57
2021/11/13 19:24:54;;;;;;;0.00;0.00;;;;;;;14.96;61.86;101507.03;7360589;19;20074;-56
2021/11/13 19:27:20;;;;;;;0.00;0.00;;;;;;;14.96;62.71;101513.16;7360392;19;20025;-55
2021/11/13 19:29:45;;;;;;;0.00;0.00;;;;;;;14.84;62.58;101491.59;7350720;19;20010;-56
2021/11/13 19:32:12;;;;;;;0.00;0.00;;;;;;;14.98;62.34;101510.47;7351947;19;20073;-56
2021/11/13 19:34:38;;;;;;;0.10;0.10;;;;;;;14.99;62.22;101517.47;7361370;19;20022;-55
2021/11/13 19:37:05;;;;;;;0.08;0.08;;;;;;;14.98;62.08;101515.75;7359244;19;20010;-57
2021/11/13 19:39:35;;;;;;;0.00;0.00;;;;;;;14.99;62.24;101512.19;7355386;19;20013;-57
2021/11/13 19:42:03;;;;;;;0.00;0.00;;;;;;;14.99;62.73;101512.19;7355122;19;20010;-57
2021/11/13 19:44:28;;;;;;;;;;;;;;;15.07;57.52;101514.63;7361873;19;20029;-56
2021/11/13 19:46:54;;;;;;;0.00;0.00;;;;;;;15.02;62.49;101526.13;7364634;19;20766;-57
2021/11/13 19:49:21;;;;;;;0.00;0.00;;;;;;;15.04;62.37;101523.44;7359906;19;20049;-55
2021/11/13 19:51:49;;;;;;;0.00;0.00;;;;;;;15.00;62.11;101519.19;7362675;19;20021;-56
2021/11/13 19:54:14;;;;;;;;;;;;;;;15.09;57.08;101528.59;7365381;19;20033;-56
2021/11/13 19:56:39;;;;;;;0.00;0.00;;;;;;;15.03;61.69;101524.38;7364770;19;21377;-55
2021/11/13 19:59:05;;;;;;;0.00;0.00;;;;;;;15.01;62.13;101531.44;7365830;19;20048;-55
2021/11/13 20:01:30;;;;;;;0.00;0.00;;;;;;;15.00;62.35;101524.44;7366573;19;20009;-56
2021/11/13 20:03:59;;;;;;;0.00;0.00;;;;;;;14.89;62.81;101498.44;7360604;19;20010;-56
2021/11/13 20:06:26;;;;;;;0.00;0.00;;;;;;;14.86;63.07;101505.56;7363880;19;20018;-57
2021/11/13 20:08:51;;;;;;;0.00;0.00;;;;;;;14.87;63.25;101512.56;7360064;19;20014;-56
2021/11/13 20:11:17;;;;;;;0.08;0.08;;;;;;;14.98;63.45;101528.88;7364984;19;20436;-57
2021/11/13 20:13:42;;;;;;;0.00;0.00;;;;;;;14.98;63.15;101531.53;7364780;19;20010;-57
2021/11/13 20:16:08;;;;;;;0.00;0.00;;;;;;;14.98;62.99;101526.25;7365537;19;20462;-56
2021/11/13 20:18:34;;;;;;;0.10;0.10;;;;;;;14.96;63.65;101523.69;7358664;19;20018;-57
2021/11/13 20:21:01;;;;;;;0.00;0.00;;;;;;;14.98;63.46;101535.00;7358120;19;20014;-57
2021/11/13 20:23:27;;;;;;;0.00;0.00;;;;;;;14.97;63.69;101530.66;7363536;19;20098;-57
2021/11/13 20:25:53;;;;;;;0.00;0.00;;;;;;;14.96;63.83;101525.44;7350162;19;20930;-55
2021/11/13 20:28:20;;;;;;;0.00;0.00;;;;;;;14.97;63.78;101535.06;7360132;19;20010;-57
2021/11/13 20:30:46;;;;;;;0.00;0.00;;;;;;;14.83;63.84;101521.41;7363103;19;20030;-56
2021/11/13 20:33:13;;;;;;;0.00;0.00;;;;;;;14.86;63.76;101529.25;7358038;19;20102;-55
2021/11/13 20:35:38;;;;;;;0.00;0.00;;;;;;;14.96;63.64;101543.88;7361854;19;20034;-56
2021/11/13 20:38:13;;;;;;;0.00;0.00;;;;;;;14.95;64.36;101543.00;7364894;19;20019;-54
2021/11/13 20:40:40;;;;;;;0.00;0.00;;;;;;;14.95;64.33;101547.38;7361278;19;20007;-56
2021/11/13 20:43:07;;;;;;;0.00;0.00;;;;;;;14.95;64.47;101550.00;7362202;19;20025;-56
2021/11/13 20:45:33;;;;;;;0.00;0.00;;;;;;;14.93;64.50;101549.19;7364086;19;20002;-57
2021/11/13 20:48:00;;;;;;;0.00;0.00;;;;;;;14.92;64.32;101553.59;7361404;19;20074;-55
2021/11/13 20:50:29;;;;;;;0.00;0.00;;;;;;;14.93;64.47;101551.81;7312864;19;20013;-56
2021/11/13 20:52:55;;;;;;;0.00;0.00;;;;;;;14.91;64.58;101545.75;7298884;19;90601;-56
2021/11/13 20:55:26;;;;;;;0.00;0.00;;;;;;;14.94;64.59;101556.16;7317882;19;20913;-56
2021/11/13 20:57:52;;;;;;;0.00;0.00;;;;;;;14.91;65.05;101551.88;7360642;19;20663;-56
2021/11/13 21:00:20;;;;;;;0.00;0.00;;;;;;;14.92;64.50;101558.00;7358921;19;21656;-55
2021/11/13 21:02:45;;;;;;;0.00;0.00;;;;;;;14.93;65.08;101564.97;7339930;19;20093;-55
2021/11/13 21:05:12;;;;;;;0.00;0.00;;;;;;;14.93;65.06;101567.59;7358244;19;20074;-55
2021/11/13 21:07:37;;;;;;;0.00;0.00;;;;;;;14.93;65.00;101570.22;7362303;19;20033;-55
2021/11/13 21:10:05;;;;;;;0.00;0.00;;;;;;;14.92;65.27;101568.50;7359836;19;20010;-56
2021/11/13 21:12:31;;;;;;;0.00;0.00;;;;;;;14.92;65.04;101569.38;7357051;19;20625;-54
2021/11/13 21:14:56;;;;;;;0.00;0.00;;;;;;;14.95;65.53;101576.31;7363764;19;20017;-56
2021/11/13 21:17:22;;;;;;;0.00;0.00;;;;;;;14.84;65.42;101570.47;7362002;19;20010;-55
2021/11/13 21:19:47;;;;;;;0.00;0.00;;;;;;;14.94;65.37;101587.72;7365989;19;20018;-55
2021/11/13 21:22:13;;;;;;;0.00;0.00;;;;;;;14.95;65.72;101589.44;7370312;19;20078;-56
2021/11/13 21:24:39;;;;;;;0.00;0.00;;;;;;;14.93;65.84;101591.28;7368714;19;20569;-56
2021/11/13 21:27:06;;;;;;;0.00;0.00;;;;;;;14.94;65.64;101593.00;7366865;19;20007;-56
2021/11/13 21:29:31;;;;;;;0.00;0.00;;;;;;;14.94;65.64;101593.00;7366349;19;20010;-60
2021/11/13 21:31:57;;;;;;;0.00;0.00;;;;;;;14.86;66.26;101581.84;7367366;19;20017;-55
2021/11/13 21:34:23;;;;;;;0.00;0.00;;;;;;;14.94;66.18;101604.38;7365298;19;20015;-55
2021/11/13 21:36:50;;;;;;;0.00;0.00;;;;;;;14.95;65.82;101597.34;7369133;19;20044;-56
2021/11/13 21:39:16;;;;;;;0.00;0.00;;;;;;;14.97;65.96;101600.81;7367901;19;20025;-57
2021/11/13 21:41:45;;;;;;;0.00;0.00;;;;;;;14.98;65.95;101605.16;7365136;19;20014;-54
2021/11/13 21:44:12;;;;;;;0.00;0.00;;;;;;;14.98;66.08;101602.53;7366388;19;20052;-56
2021/11/13 21:46:37;;;;;;;0.00;0.00;;;;;;;14.98;65.59;101607.78;7368782;19;20013;-56
2021/11/13 21:49:04;;;;;;;0.00;0.00;;;;;;;14.98;65.90;101605.16;7367103;19;20014;-55
2021/11/13 21:51:30;;;;;;;0.00;0.00;;;;;;;14.98;66.30;101605.16;7369280;19;20010;-57
2021/11/13 21:53:56;;;;;;;0.00;0.00;;;;;;;14.99;66.34;101612.16;7368171;19;20021;-55
2021/11/13 21:56:24;;;;;;;0.00;0.00;;;;;;;15.00;65.94;101616.50;7368776;19;20074;-57
2021/11/13 21:58:49;;;;;;;;;;;;;;;15.05;60.75;101617.25;7369785;19;20073;-56
2021/11/13 22:01:14;;;;;;;0.00;0.00;;;;;;;15.00;65.80;101611.22;7368334;19;19922;-55
2021/11/13 22:03:40;;;;;;;0.00;0.00;;;;;;;15.00;66.01;101603.34;7368744;19;20425;-56
2021/11/13 22:06:06;;;;;;;0.00;0.00;;;;;;;15.00;65.92;101611.22;7366901;19;20533;-56
2021/11/13 22:08:32;;;;;;;0.00;0.00;;;;;;;15.00;66.36;101608.59;7367090;19;20045;-54
2021/11/13 22:11:04;;;;;;;0.00;0.00;;;;;;;15.03;65.50;101611.16;7368228;19;20044;-56
2021/11/13 22:13:31;;;;;;;0.00;0.00;;;;;;;15.01;66.33;101615.63;7365300;19;20014;-56
2021/11/13 22:15:57;;;;;;;0.00;0.00;;;;;;;15.00;66.13;101613.88;7367127;19;20083;-57
2021/11/13 22:18:23;;;;;;;0.00;0.00;;;;;;;15.00;66.62;101620.03;7370058;19;20014;-56
2021/11/13 22:20:49;;;;;;;0.00;0.00;;;;;;;15.00;66.58;101613.88;7365037;19;20015;-57
2021/11/13 22:23:15;;;;;;;0.00;0.00;;;;;;;15.00;66.46;101613.88;7366063;19;20045;-56
2021/11/13 22:25:43;;;;;;;0.00;0.00;;;;;;;15.02;66.55;101618.19;7368954;19;20462;-56
2021/11/13 22:28:08;;;;;;;;;;;;;;;15.08;62.14;101606.66;7367246;19;20074;-57
2021/11/13 22:30:37;;;;;;;0.00;0.00;;;;;;;15.06;65.80;101611.09;7347897;19;19922;-56
2021/11/13 22:33:03;;;;;;;0.00;0.00;;;;;;;15.03;66.31;101608.53;7366554;19;20019;-55
2021/11/13 22:35:29;;;;;;;0.00;0.00;;;;;;;15.01;65.99;101600.69;7365773;19;20017;-53
2021/11/13 22:37:55;;;;;;;0.00;0.00;;;;;;;15.03;66.16;101603.28;7365394;19;20006;-55
2021/11/13 22:40:24;;;;;;;0.00;0.00;;;;;;;15.06;66.45;101613.72;7367991;19;20025;-56
2021/11/13 22:42:51;;;;;;;0.00;0.00;;;;;;;15.04;66.63;101607.63;7363234;19;20006;-57
2021/11/13 22:45:17;;;;;;;0.00;0.00;;;;;;;15.03;66.69;101605.91;7361534;19;20031;-56
2021/11/13 22:47:43;;;;;;;0.00;0.00;;;;;;;15.03;66.32;101613.81;7364655;19;20433;-57
2021/11/13 22:50:11;;;;;;;0.00;0.00;;;;;;;15.05;66.91;101611.97;7362314;19;20013;-55
2021/11/13 22:52:36;;;;;;;;;;;;;;;15.10;62.51;101609.22;7367311;19;20027;-56
2021/11/13 22:55:07;;;;;;;0.00;0.00;;;;;;;15.06;66.38;101613.72;7365816;19;19918;-55
2021/11/13 22:57:32;;;;;;;0.00;0.00;;;;;;;15.04;66.19;101610.25;7363687;19;20578;-56
2021/11/13 22:59:58;;;;;;;0.00;0.00;;;;;;;15.04;66.31;101611.13;7366295;19;20019;-56
2021/11/13 23:02:24;;;;;;;0.00;0.00;;;;;;;15.03;67.21;101608.53;7365099;19;20019;-56
2021/11/13 23:04:49;;;;;;;0.00;0.00;;;;;;;15.03;66.66;101603.28;7366686;19;20349;-57
2021/11/13 23:07:19;;;;;;;0.00;0.00;;;;;;;15.07;66.62;101604.06;7361646;19;20022;-54
2021/11/13 23:09:44;;;;;;;0.00;0.00;;;;;;;15.05;66.95;101611.97;7366997;19;20517;-57
2021/11/13 23:12:12;;;;;;;0.00;0.00;;;;;;;15.08;67.12;101616.31;7367958;19;20014;-56
2021/11/13 23:14:41;;;;;;;0.00;0.00;;;;;;;15.10;66.38;101619.75;7365000;19;20010;-55
2021/11/13 23:17:08;;;;;;;0.00;0.00;;;;;;;15.08;67.10;101616.31;7364061;19;20015;-55
2021/11/13 23:19:37;;;;;;;0.00;0.00;;;;;;;15.12;66.54;101613.56;7365999;19;20022;-57
2021/11/13 23:22:16;;;;;;;0.00;0.00;;;;;;;15.13;65.50;101615.28;7365426;19;20033;-56
2021/11/13 23:24:43;;;;;;;0.00;0.00;;;;;;;15.10;67.09;101620.59;7366007;19;20373;-56
2021/11/13 23:27:12;;;;;;;0.00;0.00;;;;;;;15.14;66.44;101618.78;7366070;19;20069;-56
2021/11/13 23:29:39;;;;;;;0.00;0.00;;;;;;;15.12;67.18;101616.19;7364482;19;20010;-55
2021/11/13 23:32:05;;;;;;;0.00;0.00;;;;;;;15.11;66.93;101617.09;7360225;19;20021;-56
2021/11/13 23:34:31;;;;;;;0.00;0.00;;;;;;;15.10;66.97;101606.59;7362719;19;20137;-53
2021/11/13 23:36:56;;;;;;;0.00;0.00;;;;;;;15.08;67.21;101611.91;7358159;19;20069;-56
2021/11/13 23:39:22;;;;;;;0.00;0.00;;;;;;;15.13;67.34;101628.44;7366019;19;20013;-57
2021/11/13 23:41:48;;;;;;;0.00;0.00;;;;;;;15.10;66.85;101623.25;7361301;19;20693;-56
2021/11/13 23:44:15;;;;;;;0.00;0.00;;;;;;;15.14;66.60;101626.66;7366429;19;20015;-56
2021/11/13 23:46:42;;;;;;;0.08;0.08;;;;;;;15.13;67.07;101623.16;7361213;19;20017;-55
2021/11/13 23:49:08;;;;;;;0.00;0.00;;;;;;;15.15;67.17;101634.50;7363117;19;20030;-53
2021/11/13 23:51:34;;;;;;;0.00;0.00;;;;;;;15.15;67.32;101623.97;7364293;19;20033;-55
2021/11/13 23:53:59;;;;;;;0.10;0.10;;;;;;;15.16;67.63;101635.41;7363968;19;20018;-56
2021/11/13 23:56:26;;;;;;;0.00;0.00;;;;;;;15.16;67.38;101630.13;7361084;19;20023;-54
2021/11/13 23:58:51;;;;;;;0.00;0.00;;;;;;;15.18;67.10;101626.53;7363524;19;20014;-56
